createdAt,value
2019-02-17T00:02:23.314Z,19.20
2019-02-17T00:04:51.764Z,17.87
2019-02-17T00:07:20.193Z,18.13
2019-02-17T00:09:48.623Z,18.43
2019-02-17T00:12:17.055Z,17.93
2019-02-17T00:14:45.491Z,19.03
2019-02-17T00:17:13.913Z,18.07
2019-02-17T00:19:42.374Z,17.43
2019-02-17T00:22:10.804Z,16.70
2019-02-17T00:24:39.230Z,18.27
2019-02-17T00:27:07.694Z,17.60
2019-02-17T00:29:36.117Z,19.47
2019-02-17T00:32:04.594Z,19.17
2019-02-17T00:34:33.054Z,17.37
2019-02-17T00:37:01.473Z,16.47
2019-02-17T00:39:29.908Z,17.90
2019-02-17T00:41:58.508Z,16.67
2019-02-17T00:44:26.948Z,17.03
2019-02-17T00:46:55.404Z,17.00
2019-02-17T00:49:23.825Z,17.47
2019-02-17T00:51:52.282Z,17.30
2019-02-17T00:54:20.749Z,18.47
2019-02-17T00:56:49.167Z,18.90
2019-02-17T00:59:17.611Z,20.20
2019-02-17T01:01:46.042Z,18.43
2019-02-17T01:04:14.481Z,18.27
2019-02-17T01:06:42.918Z,17.97
2019-02-17T01:09:11.354Z,18.80
2019-02-17T01:11:39.775Z,17.60
2019-02-17T01:14:08.228Z,16.93
2019-02-17T01:16:36.645Z,17.20
2019-02-17T01:19:05.067Z,18.43
2019-02-17T01:21:33.488Z,18.97
2019-02-17T01:24:02.184Z,18.70
2019-02-17T01:26:30.612Z,18.10
2019-02-17T01:28:59.063Z,18.07
2019-02-17T01:31:27.926Z,18.43
2019-02-17T01:33:56.356Z,17.47
2019-02-17T01:36:24.778Z,18.03
2019-02-17T01:38:53.233Z,21.40
2019-02-17T01:41:21.659Z,19.93
2019-02-17T01:43:50.121Z,20.80
2019-02-17T01:46:18.539Z,18.97
2019-02-17T01:48:46.955Z,17.47
2019-02-17T01:51:15.397Z,17.60
2019-02-17T01:53:43.814Z,16.83
2019-02-17T01:56:12.245Z,18.43
2019-02-17T01:58:40.686Z,18.50
2019-02-17T02:01:09.146Z,18.23
2019-02-17T02:03:37.559Z,18.37
2019-02-17T02:06:06.000Z,19.00
2019-02-17T02:08:34.434Z,16.53
2019-02-17T02:11:02.867Z,16.57
2019-02-17T02:13:31.282Z,18.03
2019-02-17T02:15:59.724Z,18.00
2019-02-17T02:18:28.476Z,16.73
2019-02-17T02:20:57.126Z,17.90
2019-02-17T02:23:25.550Z,17.43
2019-02-17T02:25:53.988Z,17.77
2019-02-17T02:28:22.409Z,17.23
2019-02-17T02:30:50.853Z,18.10
2019-02-17T02:33:19.298Z,16.83
2019-02-17T02:35:47.727Z,17.80
2019-02-17T02:38:16.156Z,18.50
2019-02-17T02:40:44.611Z,18.80
2019-02-17T02:43:13.029Z,17.87
2019-02-17T02:45:41.470Z,17.43
2019-02-17T02:48:09.899Z,16.93
2019-02-17T02:50:38.332Z,18.60
2019-02-17T02:53:06.766Z,17.17
2019-02-17T02:55:35.204Z,16.93
2019-02-17T02:58:03.655Z,17.20
2019-02-17T03:00:32.059Z,16.40
2019-02-17T03:03:00.495Z,17.90
2019-02-17T03:05:28.934Z,19.10
2019-02-17T03:07:57.379Z,19.63
2019-02-17T03:10:25.818Z,16.77
2019-02-17T03:12:54.254Z,17.70
2019-02-17T03:15:22.675Z,18.77
2019-02-17T03:17:51.124Z,16.63
2019-02-17T03:20:19.549Z,17.93
2019-02-17T03:22:47.996Z,17.97
2019-02-17T03:25:16.399Z,17.57
2019-02-17T03:27:44.838Z,16.47
2019-02-17T03:30:13.272Z,16.67
2019-02-17T03:32:41.714Z,16.63
2019-02-17T03:35:10.199Z,17.17
2019-02-17T03:37:38.633Z,17.00
2019-02-17T03:40:08.815Z,16.83
2019-02-17T03:42:37.311Z,16.70
2019-02-17T03:45:08.668Z,15.07
2019-02-17T03:47:37.121Z,17.90
2019-02-17T03:50:06.875Z,18.70
2019-02-17T03:52:35.315Z,19.00
2019-02-17T03:55:03.831Z,20.10
2019-02-17T03:57:32.272Z,19.07
2019-02-17T04:00:00.867Z,19.17
2019-02-17T04:02:29.375Z,18.43
2019-02-17T04:04:57.804Z,19.43
2019-02-17T04:07:26.212Z,18.47
2019-02-17T04:09:54.939Z,16.20
2019-02-17T04:12:23.353Z,16.47
2019-02-17T04:14:51.798Z,17.17
2019-02-17T04:17:20.216Z,16.87
2019-02-17T04:19:48.714Z,17.57
2019-02-17T04:22:17.138Z,17.30
2019-02-17T04:24:45.589Z,17.27
2019-02-17T04:27:14.015Z,17.47
2019-02-17T04:29:42.463Z,17.50
2019-02-17T04:32:10.905Z,16.93
2019-02-17T04:34:39.330Z,18.17
2019-02-17T04:37:07.750Z,20.87
2019-02-17T04:39:36.187Z,18.33
2019-02-17T04:42:04.619Z,20.00
2019-02-17T04:44:33.051Z,18.60
2019-02-17T04:47:01.516Z,19.23
2019-02-17T04:49:29.991Z,21.20
2019-02-17T04:51:58.676Z,19.60
2019-02-17T04:54:27.107Z,20.47
2019-02-17T04:56:55.533Z,18.30
2019-02-17T04:59:23.960Z,18.97
2019-02-17T05:01:52.380Z,17.03
2019-02-17T05:04:20.814Z,16.83
2019-02-17T05:06:49.250Z,17.50
2019-02-17T05:09:17.671Z,17.63
2019-02-17T05:11:46.099Z,17.27
2019-02-17T05:14:14.520Z,17.40
2019-02-17T05:16:42.966Z,17.40
2019-02-17T05:19:11.400Z,17.63
2019-02-17T05:21:39.851Z,16.57
2019-02-17T05:24:08.303Z,17.40
2019-02-17T05:26:36.721Z,17.40
2019-02-17T05:29:05.143Z,17.13
2019-02-17T05:31:33.597Z,15.27
2019-02-17T05:34:02.018Z,16.03
2019-02-17T05:36:30.459Z,17.60
2019-02-17T05:38:58.900Z,32.77
2019-02-17T05:41:27.357Z,19.47
2019-02-17T05:43:55.788Z,18.83
2019-02-17T05:46:24.223Z,17.63
2019-02-17T05:48:52.622Z,18.70
2019-02-17T05:51:21.087Z,20.60
2019-02-17T05:53:49.512Z,19.63
2019-02-17T05:56:17.953Z,20.87
2019-02-17T05:58:46.367Z,19.07
2019-02-17T06:01:14.811Z,18.27
2019-02-17T06:03:43.478Z,17.30
2019-02-17T06:06:11.902Z,18.17
2019-02-17T06:08:40.315Z,16.70
2019-02-17T06:11:09.228Z,16.10
2019-02-17T06:13:37.648Z,18.30
2019-02-17T06:16:06.091Z,16.80
2019-02-17T06:18:34.828Z,19.13
2019-02-17T06:21:03.274Z,18.70
2019-02-17T06:23:31.712Z,18.67
2019-02-17T06:26:00.138Z,18.20
2019-02-17T06:28:28.568Z,17.97
2019-02-17T06:30:57.081Z,18.60
2019-02-17T06:33:25.490Z,18.00
2019-02-17T06:35:53.950Z,20.57
2019-02-17T06:38:22.368Z,20.03
2019-02-17T06:40:50.816Z,18.87
2019-02-17T06:43:19.235Z,17.03
2019-02-17T06:45:49.622Z,18.20
2019-02-17T06:48:18.069Z,17.57
2019-02-17T06:50:46.565Z,17.27
2019-02-17T06:53:15.007Z,16.30
2019-02-17T06:55:45.066Z,16.67
2019-02-17T06:58:13.490Z,16.43
2019-02-17T07:00:43.603Z,18.87
2019-02-17T07:03:13.817Z,19.80
2019-02-17T07:05:46.215Z,20.30
2019-02-17T07:08:14.904Z,19.00
2019-02-17T07:10:43.319Z,18.93
2019-02-17T07:13:11.752Z,17.97
2019-02-17T07:15:40.175Z,18.40
2019-02-17T07:18:08.598Z,18.77
2019-02-17T07:20:37.050Z,16.93
2019-02-17T07:23:05.498Z,18.33
2019-02-17T07:25:33.927Z,17.47
2019-02-17T07:28:02.398Z,16.97
2019-02-17T07:30:30.828Z,15.63
2019-02-17T07:32:59.250Z,16.50
2019-02-17T07:35:27.719Z,16.97
2019-02-17T07:37:56.131Z,16.63
2019-02-17T07:40:24.580Z,16.63
2019-02-17T07:42:53.014Z,17.13
2019-02-17T07:45:21.441Z,18.27
2019-02-17T07:47:49.883Z,16.67
2019-02-17T07:50:18.387Z,11.17
2019-02-17T07:52:46.819Z,17.63
2019-02-17T07:55:15.250Z,19.10
2019-02-17T07:57:43.738Z,18.33
2019-02-17T08:00:12.817Z,14.67
2019-02-17T08:02:41.254Z,14.67
2019-02-17T08:05:09.843Z,15.47
2019-02-17T08:07:38.309Z,16.00
2019-02-17T08:10:09.040Z,16.90
2019-02-17T08:12:37.524Z,17.13
2019-02-17T08:15:08.386Z,19.73
2019-02-17T08:17:36.836Z,20.60
2019-02-17T08:20:09.093Z,17.43
2019-02-17T08:22:37.522Z,17.20
2019-02-17T08:25:07.388Z,15.40
2019-02-17T08:27:35.845Z,16.13
2019-02-17T08:30:06.279Z,16.27
2019-02-17T08:32:34.742Z,16.53
2019-02-17T08:35:03.333Z,16.53
2019-02-17T08:37:31.751Z,18.53
2019-02-17T08:40:00.325Z,18.10
2019-02-17T08:42:28.894Z,21.60
2019-02-17T08:44:57.308Z,19.30
2019-02-17T08:47:25.755Z,19.53
2019-02-17T08:49:54.176Z,18.33
2019-02-17T08:52:22.615Z,17.47
2019-02-17T08:54:51.067Z,14.13
2019-02-17T08:57:19.503Z,15.37
2019-02-17T08:59:47.920Z,15.07
2019-02-17T09:02:16.447Z,13.50
2019-02-17T09:04:44.869Z,14.67
2019-02-17T09:07:13.337Z,18.10
2019-02-17T09:09:41.756Z,15.33
2019-02-17T09:12:10.220Z,14.87
2019-02-17T09:14:38.645Z,12.67
2019-02-17T09:17:07.088Z,13.40
2019-02-17T09:19:35.541Z,11.83
2019-02-17T09:22:03.969Z,12.50
2019-02-17T09:24:32.398Z,12.67
2019-02-17T09:27:00.843Z,13.50
2019-02-17T09:29:29.257Z,12.80
2019-02-17T09:31:59.343Z,13.20
2019-02-17T09:34:27.878Z,12.23
2019-02-17T09:36:56.386Z,13.50
2019-02-17T09:39:24.819Z,13.23
2019-02-17T09:41:53.238Z,14.70
2019-02-17T09:44:21.695Z,14.50
2019-02-17T09:46:50.129Z,13.93
2019-02-17T09:49:18.548Z,14.97
2019-02-17T09:51:46.989Z,13.77
2019-02-17T09:54:15.460Z,14.70
2019-02-17T09:56:43.899Z,12.93
2019-02-17T09:59:12.319Z,13.40
2019-02-17T10:01:42.680Z,13.80
2019-02-17T10:04:10.888Z,13.40
2019-02-17T10:06:39.348Z,13.90
2019-02-17T10:09:07.826Z,14.60
2019-02-17T10:11:36.263Z,14.27
2019-02-17T10:14:04.695Z,13.37
2019-02-17T10:16:33.132Z,14.00
2019-02-17T10:19:01.562Z,13.60
2019-02-17T10:21:30.963Z,14.73
2019-02-17T10:23:59.406Z,14.03
2019-02-17T10:26:27.828Z,12.73
2019-02-17T10:28:56.275Z,12.30
2019-02-17T10:31:25.596Z,12.77
2019-02-17T10:33:54.022Z,13.33
2019-02-17T10:36:22.460Z,12.17
2019-02-17T10:38:50.891Z,12.63
2019-02-17T10:41:19.312Z,10.10
2019-02-17T10:43:47.744Z,8.57
2019-02-17T10:46:16.194Z,8.47
2019-02-17T10:48:44.619Z,8.60
2019-02-17T10:51:13.052Z,7.27
2019-02-17T10:53:41.488Z,6.53
2019-02-17T10:56:09.911Z,6.13
2019-02-17T10:58:38.414Z,5.33
2019-02-17T11:01:08.110Z,4.50
2019-02-17T11:03:36.552Z,4.87
2019-02-17T11:06:05.059Z,4.27
2019-02-17T11:08:33.515Z,4.27
2019-02-17T11:11:01.945Z,4.63
2019-02-17T11:13:30.365Z,3.73
2019-02-17T11:15:58.813Z,3.87
2019-02-17T11:18:27.230Z,3.77
2019-02-17T11:20:56.587Z,3.90
2019-02-17T11:23:25.100Z,3.43
2019-02-17T11:25:54.436Z,3.97
2019-02-17T11:28:23.761Z,3.53
2019-02-17T11:30:52.424Z,3.50
2019-02-17T11:33:20.878Z,3.43
2019-02-17T11:35:49.304Z,4.93
2019-02-17T11:38:17.772Z,2.67
2019-02-17T11:40:46.244Z,3.00
2019-02-17T11:43:14.663Z,3.37
2019-02-17T11:45:43.120Z,2.83
2019-02-17T11:48:11.529Z,3.00
2019-02-17T11:50:39.946Z,2.77
2019-02-17T11:53:08.368Z,3.37
2019-02-17T11:55:36.808Z,2.83
2019-02-17T11:58:05.219Z,3.13
2019-02-17T12:00:33.664Z,2.50
2019-02-17T12:03:08.041Z,2.80
2019-02-17T12:05:32.215Z,2.87
2019-02-17T12:08:00.622Z,3.20
2019-02-17T12:10:29.216Z,2.80
2019-02-17T12:12:57.850Z,3.27
2019-02-17T12:15:26.279Z,2.60
2019-02-17T12:17:54.696Z,2.93
2019-02-17T12:20:39.336Z,2.57
2019-02-17T12:23:12.108Z,2.43
2019-02-17T12:25:50.984Z,2.47
2019-02-17T12:28:24.004Z,2.50
2019-02-17T12:30:52.504Z,2.27
2019-02-17T12:33:21.967Z,2.40
2019-02-17T12:35:50.502Z,2.30
2019-02-17T12:38:18.929Z,2.47
2019-02-17T12:40:47.347Z,2.83
2019-02-17T12:43:15.837Z,2.50
2019-02-17T12:45:44.248Z,2.30
2019-02-17T12:48:12.668Z,2.57
2019-02-17T12:50:41.134Z,2.30
2019-02-17T12:53:09.540Z,2.47
2019-02-17T12:55:37.979Z,2.40
2019-02-17T12:58:06.388Z,2.23
2019-02-17T13:00:34.808Z,2.50
2019-02-17T13:03:03.232Z,2.50
2019-02-17T13:05:33.552Z,2.30
2019-02-17T13:08:01.958Z,2.40
2019-02-17T13:10:30.388Z,2.30
2019-02-17T13:12:58.797Z,2.40
2019-02-17T13:15:27.218Z,2.13
2019-02-17T13:17:55.644Z,2.20
2019-02-17T13:20:24.079Z,2.40
2019-02-17T13:22:52.506Z,2.40
2019-02-17T13:25:20.960Z,2.57
2019-02-17T13:27:49.414Z,2.33
2019-02-17T13:30:23.212Z,2.10
2019-02-17T13:32:51.651Z,1.97
2019-02-17T13:35:20.051Z,2.77
2019-02-17T13:37:48.482Z,2.47
2019-02-17T13:40:16.901Z,2.17
2019-02-17T13:42:45.327Z,2.10
2019-02-17T13:45:17.845Z,1.87
2019-02-17T13:47:46.267Z,1.57
2019-02-17T13:50:15.743Z,2.17
2019-02-17T13:52:44.187Z,1.90
2019-02-17T13:55:12.726Z,2.20
2019-02-17T13:57:41.197Z,2.00
2019-02-17T14:00:13.151Z,1.93
2019-02-17T14:02:41.695Z,1.93
2019-02-17T14:05:10.266Z,1.70
2019-02-17T14:07:39.581Z,1.67
2019-02-17T14:10:11.779Z,1.87
2019-02-17T14:12:40.231Z,1.90
2019-02-17T14:15:14.251Z,1.90
2019-02-17T14:17:42.680Z,1.80
2019-02-17T14:20:11.376Z,1.83
2019-02-17T14:22:40.064Z,2.07
2019-02-17T14:25:11.081Z,1.90
2019-02-17T14:27:39.944Z,1.70
2019-02-17T14:30:11.124Z,1.60
2019-02-17T14:32:39.556Z,1.63
2019-02-17T14:35:08.207Z,1.70
2019-02-17T14:37:36.640Z,2.03
2019-02-17T14:40:15.161Z,2.23
2019-02-17T14:42:43.601Z,1.70
2019-02-17T14:45:13.366Z,2.17
2019-02-17T14:47:41.792Z,1.80
2019-02-17T14:50:10.942Z,1.80
2019-02-17T14:52:39.387Z,1.80
2019-02-17T14:55:11.128Z,1.70
2019-02-17T14:57:39.578Z,1.90
2019-02-17T15:00:11.283Z,1.70
2019-02-17T15:02:39.703Z,1.93
2019-02-17T15:05:09.626Z,2.20
2019-02-17T15:07:38.062Z,2.40
2019-02-17T15:10:09.050Z,2.60
2019-02-17T15:12:38.651Z,2.07
2019-02-17T15:15:11.970Z,1.90
2019-02-17T15:17:40.382Z,1.80
2019-02-17T15:20:12.011Z,1.67
2019-02-17T15:22:40.430Z,2.10
2019-02-17T15:25:10.808Z,1.90
2019-02-17T15:27:39.282Z,1.80
2019-02-17T15:30:13.651Z,1.50
2019-02-17T15:32:42.067Z,1.70
2019-02-17T15:35:10.659Z,1.63
2019-02-17T15:37:39.139Z,1.60
2019-02-17T15:40:12.944Z,1.43
2019-02-17T15:42:43.287Z,1.50
2019-02-17T15:45:12.978Z,1.97
2019-02-17T15:47:41.425Z,1.87
2019-02-17T15:50:12.257Z,1.70
2019-02-17T15:52:40.674Z,1.60
2019-02-17T15:55:13.869Z,2.10
2019-02-17T15:57:42.423Z,2.80
2019-02-17T16:00:15.715Z,2.10
2019-02-17T16:02:44.141Z,2.10
2019-02-17T16:05:12.636Z,3.30
2019-02-17T16:07:41.071Z,2.70
2019-02-17T16:10:13.482Z,2.83
2019-02-17T16:12:42.797Z,1.80
2019-02-17T16:15:19.038Z,5.93
2019-02-17T16:17:47.474Z,3.27
2019-02-17T16:20:17.946Z,3.73
2019-02-17T16:22:46.396Z,3.67
2019-02-17T16:25:14.825Z,1.90
2019-02-17T16:27:44.477Z,2.67
2019-02-17T16:30:23.472Z,1.80
2019-02-17T16:32:51.920Z,3.97
2019-02-17T16:35:20.410Z,2.27
2019-02-17T16:37:48.894Z,2.50
2019-02-17T16:40:18.084Z,2.67
2019-02-17T16:42:46.505Z,1.90
2019-02-17T16:45:15.286Z,5.47
2019-02-17T16:47:44.628Z,3.23
2019-02-17T16:50:32.675Z,2.77
2019-02-17T16:53:01.092Z,2.57
2019-02-17T16:55:29.794Z,1.67
2019-02-17T16:57:58.224Z,1.83
2019-02-17T17:00:26.726Z,2.47
2019-02-17T17:02:55.976Z,2.10
2019-02-17T17:05:26.376Z,2.30
2019-02-17T17:07:54.839Z,3.10
2019-02-17T17:10:23.349Z,2.00
2019-02-17T17:12:51.770Z,2.43
2019-02-17T17:15:20.289Z,2.27
2019-02-17T17:17:48.757Z,2.30
2019-02-17T17:20:19.491Z,2.17
2019-02-17T17:22:48.092Z,2.07
2019-02-17T17:25:16.597Z,2.77
2019-02-17T17:27:45.552Z,2.80
2019-02-17T17:30:16.032Z,2.07
2019-02-17T17:32:44.460Z,2.50
2019-02-17T17:35:12.980Z,2.53
2019-02-17T17:37:43.294Z,2.07
2019-02-17T17:40:15.531Z,1.57
2019-02-17T17:42:44.055Z,1.80
2019-02-17T17:45:17.714Z,2.00
2019-02-17T17:47:46.151Z,2.10
2019-02-17T17:50:15.529Z,1.97
2019-02-17T17:52:43.959Z,1.93
2019-02-17T17:55:13.259Z,2.00
2019-02-17T17:57:41.660Z,3.40
2019-02-17T18:00:18.667Z,2.47
2019-02-17T18:02:47.185Z,2.17
2019-02-17T18:05:15.745Z,2.30
2019-02-17T18:07:44.204Z,2.30
2019-02-17T18:10:16.466Z,2.73
2019-02-17T18:12:44.942Z,2.10
2019-02-17T18:15:18.325Z,2.30
2019-02-17T18:17:53.917Z,3.13
2019-02-17T18:20:16.908Z,3.00
2019-02-17T18:22:45.311Z,2.63
2019-02-17T18:25:14.137Z,2.70
2019-02-17T18:27:42.560Z,3.00
2019-02-17T18:30:17.175Z,8.37
2019-02-17T18:32:45.670Z,10.33
2019-02-17T18:35:19.946Z,2.80
2019-02-17T18:37:44.295Z,2.97
2019-02-17T18:40:16.714Z,3.30
2019-02-17T18:42:45.127Z,3.60
2019-02-17T18:45:14.387Z,4.23
2019-02-17T18:47:42.810Z,4.13
2019-02-17T18:50:16.235Z,4.17
2019-02-17T18:52:44.689Z,4.70
2019-02-17T18:55:13.838Z,5.10
2019-02-17T18:57:49.569Z,4.53
2019-02-17T19:00:20.859Z,4.13
2019-02-17T19:02:49.310Z,3.20
2019-02-17T19:05:20.036Z,3.27
2019-02-17T19:07:48.012Z,3.53
2019-02-17T19:10:16.500Z,3.50
2019-02-17T19:12:45.175Z,3.70
2019-02-17T19:15:19.193Z,3.23
2019-02-17T19:17:47.621Z,3.07
2019-02-17T19:20:21.638Z,4.07
2019-02-17T19:22:50.068Z,3.80
2019-02-17T19:25:18.471Z,3.20
2019-02-17T19:27:46.888Z,3.87
2019-02-17T19:30:15.882Z,3.90
2019-02-17T19:32:44.500Z,4.47
2019-02-17T19:35:16.087Z,4.10
2019-02-17T19:37:44.536Z,4.17
2019-02-17T19:40:14.008Z,4.07
2019-02-17T19:42:42.439Z,4.07
2019-02-17T19:45:12.767Z,3.93
2019-02-17T19:47:41.380Z,3.93
2019-02-17T19:50:11.840Z,3.90
2019-02-17T19:52:40.525Z,4.03
2019-02-17T19:55:10.497Z,3.90
2019-02-17T19:57:38.999Z,4.40
2019-02-17T20:00:10.802Z,4.93
2019-02-17T20:02:56.931Z,4.77
2019-02-17T20:05:27.003Z,4.27
2019-02-17T20:07:55.415Z,5.73
2019-02-17T20:10:24.205Z,4.90
2019-02-17T20:12:52.619Z,4.13
2019-02-17T20:15:22.642Z,4.40
2019-02-17T20:17:51.035Z,4.50
2019-02-17T20:20:19.486Z,5.13
2019-02-17T20:22:48.010Z,4.57
2019-02-17T20:25:16.507Z,4.57
2019-02-17T20:27:44.931Z,4.77
2019-02-17T20:30:14.390Z,5.03
2019-02-17T20:32:42.877Z,5.00
2019-02-17T20:35:11.612Z,5.23
2019-02-17T20:37:40.138Z,4.80
2019-02-17T20:40:16.622Z,4.73
2019-02-17T20:42:45.296Z,4.97
2019-02-17T20:45:13.968Z,4.60
2019-02-17T20:47:42.372Z,5.20
2019-02-17T20:50:15.012Z,4.67
2019-02-17T20:52:43.502Z,4.57
2019-02-17T20:55:14.992Z,7.57
2019-02-17T20:57:43.429Z,5.13
2019-02-17T21:00:16.541Z,6.03
2019-02-17T21:02:45.316Z,6.80
2019-02-17T21:05:13.807Z,6.63
2019-02-17T21:07:42.204Z,5.30
2019-02-17T21:10:15.962Z,5.10
2019-02-17T21:12:44.419Z,5.60
2019-02-17T21:15:15.648Z,6.27
2019-02-17T21:17:44.248Z,6.80
2019-02-17T21:20:13.558Z,6.30
2019-02-17T21:22:42.183Z,5.80
2019-02-17T21:25:12.421Z,5.70
2019-02-17T21:27:40.854Z,5.70
2019-02-17T21:30:14.554Z,6.43
2019-02-17T21:32:43.030Z,6.17
2019-02-17T21:35:13.280Z,5.80
2019-02-17T21:37:41.714Z,5.70
2019-02-17T21:40:13.839Z,5.73
2019-02-17T21:42:42.254Z,5.63
2019-02-17T21:45:17.052Z,5.23
2019-02-17T21:47:45.491Z,5.80
2019-02-17T21:50:14.739Z,6.00
2019-02-17T21:52:43.254Z,6.10
2019-02-17T21:55:12.604Z,5.90
2019-02-17T21:57:41.117Z,6.13
2019-02-17T22:00:20.087Z,5.87
2019-02-17T22:02:48.518Z,6.37
2019-02-17T22:05:17.096Z,6.43
2019-02-17T22:07:45.905Z,5.87
2019-02-17T22:10:16.819Z,5.90
2019-02-17T22:12:45.320Z,6.03
2019-02-17T22:15:18.138Z,5.23
2019-02-17T22:17:46.564Z,5.63
2019-02-17T22:20:14.996Z,6.50
2019-02-17T22:22:43.410Z,6.27
2019-02-17T22:25:13.855Z,7.40
2019-02-17T22:27:42.279Z,7.53
2019-02-17T22:30:12.336Z,7.40
2019-02-17T22:32:40.745Z,7.37
2019-02-17T22:35:09.240Z,7.40
2019-02-17T22:37:37.791Z,11.13
2019-02-17T22:40:13.531Z,7.47
2019-02-17T22:42:41.954Z,7.00
2019-02-17T22:45:13.604Z,6.73
2019-02-17T22:47:42.044Z,7.83
2019-02-17T22:50:12.684Z,7.57
2019-02-17T22:52:41.101Z,7.10
2019-02-17T22:55:13.039Z,6.53
2019-02-17T22:57:41.462Z,7.03
2019-02-17T23:00:49.762Z,8.40
2019-02-17T23:03:18.179Z,13.37
2019-02-17T23:05:46.617Z,6.60
2019-02-17T23:08:15.031Z,8.27
2019-02-17T23:10:43.467Z,7.67
2019-02-17T23:13:11.900Z,7.93
2019-02-17T23:15:40.326Z,6.80
2019-02-17T23:18:08.753Z,7.33
2019-02-17T23:20:37.178Z,7.40
2019-02-17T23:23:05.592Z,7.27
2019-02-17T23:25:34.015Z,8.37
2019-02-17T23:28:02.435Z,8.87
2019-02-17T23:30:30.886Z,8.00
2019-02-17T23:33:02.019Z,7.57
2019-02-17T23:35:30.459Z,7.20
2019-02-17T23:37:58.898Z,7.03
2019-02-17T23:40:27.349Z,7.53
2019-02-17T23:42:55.769Z,7.03
2019-02-17T23:45:24.206Z,6.90
2019-02-17T23:47:52.670Z,6.50
2019-02-17T23:50:21.120Z,7.20
2019-02-17T23:52:49.581Z,7.30
2019-02-17T23:55:18.060Z,5.73
2019-02-17T23:57:46.472Z,6.50
